sensor_id;sensor_type;location;lat;lon;timestamp;P1;durP1;ratioP1;P2;durP2;ratioP2
11827;SDS011;5971;49.646;8.568;2023-03-19T00:01:40;10.05;;;4.18;;
11827;SDS011;5971;49.646;8.568;2023-03-19T00:04:41;6.93;;;4.00;;
11827;SDS011;5971;49.646;8.568;2023-03-19T00:07:43;9.60;;;4.05;;
11827;SDS011;5971;49.646;8.568;2023-03-19T00:10:44;8.85;;;3.95;;
11827;SDS011;5971;49.646;8.568;2023-03-19T00:13:46;6.40;;;4.07;;
11827;SDS011;5971;49.646;8.568;2023-03-19T00:16:47;5.78;;;3.90;;
11827;SDS011;5971;49.646;8.568;2023-03-19T00:19:49;6.55;;;3.83;;
11827;SDS011;5971;49.646;8.568;2023-03-19T00:22:51;7.80;;;3.88;;
11827;SDS011;5971;49.646;8.568;2023-03-19T00:25:52;7.85;;;4.40;;
11827;SDS011;5971;49.646;8.568;2023-03-19T00:28:54;7.40;;;4.13;;
11827;SDS011;5971;49.646;8.568;2023-03-19T00:31:56;5.63;;;3.83;;
11827;SDS011;5971;49.646;8.568;2023-03-19T00:34:57;7.13;;;3.33;;
11827;SDS011;5971;49.646;8.568;2023-03-19T00:37:58;6.03;;;3.28;;
11827;SDS011;5971;49.646;8.568;2023-03-19T00:41:00;6.60;;;3.60;;
11827;SDS011;5971;49.646;8.568;2023-03-19T00:44:01;6.07;;;3.47;;
11827;SDS011;5971;49.646;8.568;2023-03-19T00:47:04;5.82;;;3.35;;
11827;SDS011;5971;49.646;8.568;2023-03-19T00:50:07;6.53;;;3.70;;
11827;SDS011;5971;49.646;8.568;2023-03-19T00:53:09;8.30;;;3.63;;
11827;SDS011;5971;49.646;8.568;2023-03-19T00:56:11;8.15;;;3.67;;
11827;SDS011;5971;49.646;8.568;2023-03-19T00:59:13;5.20;;;3.53;;
11827;SDS011;5971;49.646;8.568;2023-03-19T01:02:14;6.90;;;3.67;;
11827;SDS011;5971;49.646;8.568;2023-03-19T01:05:15;6.20;;;3.55;;
11827;SDS011;5971;49.646;8.568;2023-03-19T01:08:17;7.35;;;3.70;;
11827;SDS011;5971;49.646;8.568;2023-03-19T01:11:19;5.78;;;3.80;;
11827;SDS011;5971;49.646;8.568;2023-03-19T01:14:21;7.50;;;3.88;;
11827;SDS011;5971;49.646;8.568;2023-03-19T01:17:22;5.30;;;3.10;;
11827;SDS011;5971;49.646;8.568;2023-03-19T01:20:23;6.30;;;3.05;;
11827;SDS011;5971;49.646;8.568;2023-03-19T01:23:25;4.70;;;3.17;;
11827;SDS011;5971;49.646;8.568;2023-03-19T01:26:26;6.88;;;3.83;;
11827;SDS011;5971;49.646;8.568;2023-03-19T01:29:28;7.00;;;3.92;;
11827;SDS011;5971;49.646;8.568;2023-03-19T01:32:29;6.90;;;3.88;;
11827;SDS011;5971;49.646;8.568;2023-03-19T01:35:31;8.73;;;3.83;;
11827;SDS011;5971;49.646;8.568;2023-03-19T01:38:32;8.77;;;3.50;;
11827;SDS011;5971;49.646;8.568;2023-03-19T01:41:34;7.07;;;3.65;;
11827;SDS011;5971;49.646;8.568;2023-03-19T01:44:36;7.57;;;3.70;;
11827;SDS011;5971;49.646;8.568;2023-03-19T01:47:38;5.07;;;3.42;;
11827;SDS011;5971;49.646;8.568;2023-03-19T01:50:44;6.72;;;3.22;;
11827;SDS011;5971;49.646;8.568;2023-03-19T01:53:46;6.07;;;3.63;;
11827;SDS011;5971;49.646;8.568;2023-03-19T01:56:54;6.82;;;4.13;;
11827;SDS011;5971;49.646;8.568;2023-03-19T01:59:59;8.27;;;4.00;;
11827;SDS011;5971;49.646;8.568;2023-03-19T02:03:01;7.13;;;3.60;;
11827;SDS011;5971;49.646;8.568;2023-03-19T02:06:03;8.38;;;4.30;;
11827;SDS011;5971;49.646;8.568;2023-03-19T02:09:04;9.30;;;3.83;;
11827;SDS011;5971;49.646;8.568;2023-03-19T02:12:06;7.05;;;3.53;;
11827;SDS011;5971;49.646;8.568;2023-03-19T02:15:08;7.63;;;3.35;;
11827;SDS011;5971;49.646;8.568;2023-03-19T02:18:09;9.13;;;4.22;;
11827;SDS011;5971;49.646;8.568;2023-03-19T02:21:14;7.82;;;4.07;;
11827;SDS011;5971;49.646;8.568;2023-03-19T02:24:18;6.43;;;3.72;;
11827;SDS011;5971;49.646;8.568;2023-03-19T02:27:20;7.95;;;3.05;;
11827;SDS011;5971;49.646;8.568;2023-03-19T02:30:26;5.32;;;3.08;;
11827;SDS011;5971;49.646;8.568;2023-03-19T02:33:27;7.45;;;3.75;;
11827;SDS011;5971;49.646;8.568;2023-03-19T02:36:31;6.90;;;4.38;;
11827;SDS011;5971;49.646;8.568;2023-03-19T02:39:43;6.80;;;3.95;;
11827;SDS011;5971;49.646;8.568;2023-03-19T02:42:47;8.32;;;3.53;;
11827;SDS011;5971;49.646;8.568;2023-03-19T02:45:48;7.20;;;3.70;;
11827;SDS011;5971;49.646;8.568;2023-03-19T02:48:50;5.75;;;3.45;;
11827;SDS011;5971;49.646;8.568;2023-03-19T02:51:52;7.55;;;3.53;;
11827;SDS011;5971;49.646;8.568;2023-03-19T02:54:53;8.60;;;3.58;;
11827;SDS011;5971;49.646;8.568;2023-03-19T02:57:55;6.50;;;3.85;;
11827;SDS011;5971;49.646;8.568;2023-03-19T03:00:56;4.65;;;3.00;;
11827;SDS011;5971;49.646;8.568;2023-03-19T03:03:58;7.93;;;3.42;;
11827;SDS011;5971;49.646;8.568;2023-03-19T03:06:59;6.45;;;3.35;;
11827;SDS011;5971;49.646;8.568;2023-03-19T03:10:01;6.72;;;3.42;;
11827;SDS011;5971;49.646;8.568;2023-03-19T03:13:02;5.50;;;3.17;;
11827;SDS011;5971;49.646;8.568;2023-03-19T03:16:04;5.25;;;2.80;;
11827;SDS011;5971;49.646;8.568;2023-03-19T03:19:06;5.63;;;3.38;;
11827;SDS011;5971;49.646;8.568;2023-03-19T03:22:07;5.32;;;3.05;;
11827;SDS011;5971;49.646;8.568;2023-03-19T03:25:09;6.80;;;3.63;;
11827;SDS011;5971;49.646;8.568;2023-03-19T03:28:10;6.20;;;3.10;;
11827;SDS011;5971;49.646;8.568;2023-03-19T03:31:12;4.90;;;2.97;;
11827;SDS011;5971;49.646;8.568;2023-03-19T03:34:14;5.88;;;3.35;;
11827;SDS011;5971;49.646;8.568;2023-03-19T03:37:15;5.55;;;3.15;;
11827;SDS011;5971;49.646;8.568;2023-03-19T03:40:17;5.15;;;3.15;;
11827;SDS011;5971;49.646;8.568;2023-03-19T03:43:19;4.85;;;2.83;;
11827;SDS011;5971;49.646;8.568;2023-03-19T03:46:22;6.28;;;2.88;;
11827;SDS011;5971;49.646;8.568;2023-03-19T03:49:24;5.45;;;2.58;;
11827;SDS011;5971;49.646;8.568;2023-03-19T03:52:26;7.32;;;3.00;;
11827;SDS011;5971;49.646;8.568;2023-03-19T03:55:31;6.22;;;2.83;;
11827;SDS011;5971;49.646;8.568;2023-03-19T03:58:33;6.00;;;3.13;;
11827;SDS011;5971;49.646;8.568;2023-03-19T04:01:34;5.03;;;2.83;;
11827;SDS011;5971;49.646;8.568;2023-03-19T04:04:36;4.60;;;3.10;;
11827;SDS011;5971;49.646;8.568;2023-03-19T04:07:37;4.53;;;2.72;;
11827;SDS011;5971;49.646;8.568;2023-03-19T04:10:39;7.45;;;3.05;;
11827;SDS011;5971;49.646;8.568;2023-03-19T04:13:42;5.95;;;2.95;;
11827;SDS011;5971;49.646;8.568;2023-03-19T04:16:43;6.03;;;2.95;;
11827;SDS011;5971;49.646;8.568;2023-03-19T04:19:44;6.03;;;3.28;;
11827;SDS011;5971;49.646;8.568;2023-03-19T04:22:46;5.47;;;3.15;;
11827;SDS011;5971;49.646;8.568;2023-03-19T04:25:47;5.55;;;2.85;;
11827;SDS011;5971;49.646;8.568;2023-03-19T04:28:48;6.45;;;3.05;;
11827;SDS011;5971;49.646;8.568;2023-03-19T04:31:49;6.07;;;2.95;;
11827;SDS011;5971;49.646;8.568;2023-03-19T04:34:51;6.03;;;3.08;;
11827;SDS011;5971;49.646;8.568;2023-03-19T04:37:52;5.47;;;3.05;;
11827;SDS011;5971;49.646;8.568;2023-03-19T04:40:54;5.25;;;3.08;;
11827;SDS011;5971;49.646;8.568;2023-03-19T04:43:56;5.72;;;3.40;;
11827;SDS011;5971;49.646;8.568;2023-03-19T04:46:57;7.70;;;3.00;;
11827;SDS011;5971;49.646;8.568;2023-03-19T04:49:58;6.40;;;3.25;;
11827;SDS011;5971;49.646;8.568;2023-03-19T04:53:00;6.95;;;2.83;;
11827;SDS011;5971;49.646;8.568;2023-03-19T04:56:02;7.00;;;3.55;;
11827;SDS011;5971;49.646;8.568;2023-03-19T04:59:04;7.05;;;3.45;;
11827;SDS011;5971;49.646;8.568;2023-03-19T05:02:05;7.47;;;3.38;;
11827;SDS011;5971;49.646;8.568;2023-03-19T05:05:07;6.43;;;3.13;;
11827;SDS011;5971;49.646;8.568;2023-03-19T05:08:09;5.45;;;3.22;;
11827;SDS011;5971;49.646;8.568;2023-03-19T05:11:10;5.57;;;3.20;;
11827;SDS011;5971;49.646;8.568;2023-03-19T05:14:12;5.70;;;3.28;;
11827;SDS011;5971;49.646;8.568;2023-03-19T05:17:13;6.75;;;3.45;;
11827;SDS011;5971;49.646;8.568;2023-03-19T05:20:15;6.40;;;3.58;;
11827;SDS011;5971;49.646;8.568;2023-03-19T05:23:16;7.65;;;3.28;;
11827;SDS011;5971;49.646;8.568;2023-03-19T05:26:18;5.97;;;3.03;;
11827;SDS011;5971;49.646;8.568;2023-03-19T05:29:19;6.15;;;3.53;;
11827;SDS011;5971;49.646;8.568;2023-03-19T05:32:20;6.47;;;3.70;;
11827;SDS011;5971;49.646;8.568;2023-03-19T05:35:22;6.72;;;3.67;;
11827;SDS011;5971;49.646;8.568;2023-03-19T05:38:23;7.63;;;3.28;;
11827;SDS011;5971;49.646;8.568;2023-03-19T05:41:25;8.32;;;3.53;;
11827;SDS011;5971;49.646;8.568;2023-03-19T05:44:26;5.65;;;3.75;;
11827;SDS011;5971;49.646;8.568;2023-03-19T05:47:27;6.70;;;3.65;;
11827;SDS011;5971;49.646;8.568;2023-03-19T05:50:29;9.48;;;3.60;;
11827;SDS011;5971;49.646;8.568;2023-03-19T05:53:31;6.72;;;3.60;;
11827;SDS011;5971;49.646;8.568;2023-03-19T05:56:33;9.55;;;3.35;;
11827;SDS011;5971;49.646;8.568;2023-03-19T05:59:35;6.75;;;3.03;;
11827;SDS011;5971;49.646;8.568;2023-03-19T06:02:37;7.53;;;5.00;;
11827;SDS011;5971;49.646;8.568;2023-03-19T06:05:38;21.13;;;5.00;;
11827;SDS011;5971;49.646;8.568;2023-03-19T06:08:39;8.98;;;4.97;;
11827;SDS011;5971;49.646;8.568;2023-03-19T06:11:41;7.93;;;3.88;;
11827;SDS011;5971;49.646;8.568;2023-03-19T06:14:43;7.03;;;4.00;;
11827;SDS011;5971;49.646;8.568;2023-03-19T06:17:44;6.35;;;3.80;;
11827;SDS011;5971;49.646;8.568;2023-03-19T06:20:46;7.70;;;3.28;;
11827;SDS011;5971;49.646;8.568;2023-03-19T06:23:48;8.55;;;4.00;;
11827;SDS011;5971;49.646;8.568;2023-03-19T06:26:51;7.78;;;3.72;;
11827;SDS011;5971;49.646;8.568;2023-03-19T06:29:52;10.80;;;5.10;;
11827;SDS011;5971;49.646;8.568;2023-03-19T06:32:53;10.95;;;6.22;;
11827;SDS011;5971;49.646;8.568;2023-03-19T06:35:55;9.52;;;4.88;;
11827;SDS011;5971;49.646;8.568;2023-03-19T06:38:59;8.40;;;4.10;;
11827;SDS011;5971;49.646;8.568;2023-03-19T06:42:01;8.00;;;3.80;;
11827;SDS011;5971;49.646;8.568;2023-03-19T06:45:02;7.82;;;3.95;;
11827;SDS011;5971;49.646;8.568;2023-03-19T06:48:03;6.63;;;3.75;;
11827;SDS011;5971;49.646;8.568;2023-03-19T06:51:06;6.15;;;3.88;;
11827;SDS011;5971;49.646;8.568;2023-03-19T06:54:07;7.07;;;3.67;;
11827;SDS011;5971;49.646;8.568;2023-03-19T06:57:08;8.52;;;3.90;;
11827;SDS011;5971;49.646;8.568;2023-03-19T07:00:10;9.95;;;4.15;;
11827;SDS011;5971;49.646;8.568;2023-03-19T07:03:11;7.82;;;3.92;;
11827;SDS011;5971;49.646;8.568;2023-03-19T07:06:13;6.25;;;3.17;;
11827;SDS011;5971;49.646;8.568;2023-03-19T07:09:14;4.68;;;2.85;;
11827;SDS011;5971;49.646;8.568;2023-03-19T07:12:15;4.75;;;2.88;;
11827;SDS011;5971;49.646;8.568;2023-03-19T07:15:16;5.38;;;3.03;;
11827;SDS011;5971;49.646;8.568;2023-03-19T07:18:20;7.10;;;3.22;;
11827;SDS011;5971;49.646;8.568;2023-03-19T07:21:21;6.75;;;3.10;;
11827;SDS011;5971;49.646;8.568;2023-03-19T07:24:22;7.82;;;3.10;;
11827;SDS011;5971;49.646;8.568;2023-03-19T07:27:24;5.82;;;3.42;;
11827;SDS011;5971;49.646;8.568;2023-03-19T07:30:25;7.10;;;3.72;;
11827;SDS011;5971;49.646;8.568;2023-03-19T07:33:27;6.10;;;3.03;;
11827;SDS011;5971;49.646;8.568;2023-03-19T07:36:28;7.55;;;3.65;;
11827;SDS011;5971;49.646;8.568;2023-03-19T07:39:29;6.97;;;3.90;;
11827;SDS011;5971;49.646;8.568;2023-03-19T07:42:31;6.75;;;3.42;;
11827;SDS011;5971;49.646;8.568;2023-03-19T07:45:32;6.38;;;3.88;;
11827;SDS011;5971;49.646;8.568;2023-03-19T07:48:33;8.35;;;4.57;;
11827;SDS011;5971;49.646;8.568;2023-03-19T07:51:35;4.97;;;2.97;;
11827;SDS011;5971;49.646;8.568;2023-03-19T07:54:36;6.95;;;3.42;;
11827;SDS011;5971;49.646;8.568;2023-03-19T07:57:38;5.63;;;3.30;;
11827;SDS011;5971;49.646;8.568;2023-03-19T08:00:39;7.65;;;3.92;;
11827;SDS011;5971;49.646;8.568;2023-03-19T08:03:41;7.75;;;4.47;;
11827;SDS011;5971;49.646;8.568;2023-03-19T08:06:42;6.60;;;3.78;;
11827;SDS011;5971;49.646;8.568;2023-03-19T08:09:43;6.97;;;3.13;;
11827;SDS011;5971;49.646;8.568;2023-03-19T08:12:44;7.90;;;4.55;;
11827;SDS011;5971;49.646;8.568;2023-03-19T08:15:46;5.05;;;2.80;;
11827;SDS011;5971;49.646;8.568;2023-03-19T08:18:47;5.10;;;2.75;;
11827;SDS011;5971;49.646;8.568;2023-03-19T08:21:51;9.52;;;3.67;;
11827;SDS011;5971;49.646;8.568;2023-03-19T08:24:52;8.43;;;5.13;;
11827;SDS011;5971;49.646;8.568;2023-03-19T08:27:54;9.90;;;6.07;;
11827;SDS011;5971;49.646;8.568;2023-03-19T08:30:56;9.10;;;5.50;;
11827;SDS011;5971;49.646;8.568;2023-03-19T08:33:57;7.03;;;3.53;;
11827;SDS011;5971;49.646;8.568;2023-03-19T08:37:04;6.85;;;4.28;;
11827;SDS011;5971;49.646;8.568;2023-03-19T08:40:06;8.55;;;4.60;;
11827;SDS011;5971;49.646;8.568;2023-03-19T08:43:07;8.23;;;4.10;;
11827;SDS011;5971;49.646;8.568;2023-03-19T08:46:08;4.78;;;3.22;;
11827;SDS011;5971;49.646;8.568;2023-03-19T08:49:11;7.53;;;3.33;;
11827;SDS011;5971;49.646;8.568;2023-03-19T08:52:12;6.22;;;4.10;;
11827;SDS011;5971;49.646;8.568;2023-03-19T08:55:13;8.20;;;4.97;;
11827;SDS011;5971;49.646;8.568;2023-03-19T08:58:16;8.23;;;4.30;;
11827;SDS011;5971;49.646;8.568;2023-03-19T09:01:17;5.28;;;3.00;;
11827;SDS011;5971;49.646;8.568;2023-03-19T09:04:19;6.43;;;3.92;;
11827;SDS011;5971;49.646;8.568;2023-03-19T09:07:21;7.40;;;3.38;;
11827;SDS011;5971;49.646;8.568;2023-03-19T09:10:22;8.45;;;4.32;;
11827;SDS011;5971;49.646;8.568;2023-03-19T09:13:24;4.32;;;3.38;;
11827;SDS011;5971;49.646;8.568;2023-03-19T09:16:25;4.15;;;2.38;;
11827;SDS011;5971;49.646;8.568;2023-03-19T09:19:27;6.07;;;4.10;;
11827;SDS011;5971;49.646;8.568;2023-03-19T09:22:28;5.10;;;3.47;;
11827;SDS011;5971;49.646;8.568;2023-03-19T09:25:29;4.45;;;3.10;;
11827;SDS011;5971;49.646;8.568;2023-03-19T09:28:30;4.78;;;3.30;;
11827;SDS011;5971;49.646;8.568;2023-03-19T09:31:32;4.57;;;2.65;;
11827;SDS011;5971;49.646;8.568;2023-03-19T09:34:33;4.25;;;2.90;;
11827;SDS011;5971;49.646;8.568;2023-03-19T09:37:35;4.30;;;2.83;;
11827;SDS011;5971;49.646;8.568;2023-03-19T09:40:43;4.68;;;3.17;;
11827;SDS011;5971;49.646;8.568;2023-03-19T09:43:53;4.97;;;2.70;;
11827;SDS011;5971;49.646;8.568;2023-03-19T09:50:11;4.05;;;2.30;;
11827;SDS011;5971;49.646;8.568;2023-03-19T09:56:14;3.55;;;2.35;;
11827;SDS011;5971;49.646;8.568;2023-03-19T09:59:16;4.28;;;2.20;;
11827;SDS011;5971;49.646;8.568;2023-03-19T10:12:21;3.72;;;2.63;;
11827;SDS011;5971;49.646;8.568;2023-03-19T10:15:21;3.70;;;1.92;;
11827;SDS011;5971;49.646;8.568;2023-03-19T10:18:27;3.40;;;1.98;;
11827;SDS011;5971;49.646;8.568;2023-03-19T10:21:36;3.78;;;2.38;;
11827;SDS011;5971;49.646;8.568;2023-03-19T10:24:40;4.43;;;2.47;;
11827;SDS011;5971;49.646;8.568;2023-03-19T10:27:44;6.32;;;2.75;;
11827;SDS011;5971;49.646;8.568;2023-03-19T10:31:11;2.58;;;1.98;;
11827;SDS011;5971;49.646;8.568;2023-03-19T10:37:28;4.00;;;2.20;;
11827;SDS011;5971;49.646;8.568;2023-03-19T10:40:35;4.60;;;2.65;;
11827;SDS011;5971;49.646;8.568;2023-03-19T10:43:40;2.85;;;2.15;;
11827;SDS011;5971;49.646;8.568;2023-03-19T10:46:42;2.70;;;1.75;;
11827;SDS011;5971;49.646;8.568;2023-03-19T10:49:43;3.47;;;2.15;;
11827;SDS011;5971;49.646;8.568;2023-03-19T10:52:44;3.30;;;2.92;;
11827;SDS011;5971;49.646;8.568;2023-03-19T10:55:54;2.92;;;2.20;;
11827;SDS011;5971;49.646;8.568;2023-03-19T10:59:06;2.67;;;1.80;;
11827;SDS011;5971;49.646;8.568;2023-03-19T11:02:20;2.78;;;1.75;;
11827;SDS011;5971;49.646;8.568;2023-03-19T11:05:26;4.70;;;2.13;;
11827;SDS011;5971;49.646;8.568;2023-03-19T11:08:37;4.05;;;2.55;;
11827;SDS011;5971;49.646;8.568;2023-03-19T11:11:46;3.53;;;2.22;;
11827;SDS011;5971;49.646;8.568;2023-03-19T11:14:51;3.67;;;2.58;;
11827;SDS011;5971;49.646;8.568;2023-03-19T11:17:57;3.75;;;2.80;;
11827;SDS011;5971;49.646;8.568;2023-03-19T11:20:59;2.85;;;1.83;;
11827;SDS011;5971;49.646;8.568;2023-03-19T11:27:04;3.38;;;2.20;;
11827;SDS011;5971;49.646;8.568;2023-03-19T11:30:12;4.93;;;2.55;;
11827;SDS011;5971;49.646;8.568;2023-03-19T11:33:26;4.55;;;2.58;;
11827;SDS011;5971;49.646;8.568;2023-03-19T11:39:57;4.75;;;2.05;;
11827;SDS011;5971;49.646;8.568;2023-03-19T11:43:23;4.28;;;2.22;;
11827;SDS011;5971;49.646;8.568;2023-03-19T11:46:46;3.55;;;2.30;;
11827;SDS011;5971;49.646;8.568;2023-03-19T11:53:31;4.07;;;2.13;;
11827;SDS011;5971;49.646;8.568;2023-03-19T11:56:40;3.05;;;1.95;;
11827;SDS011;5971;49.646;8.568;2023-03-19T11:59:46;3.60;;;2.28;;
11827;SDS011;5971;49.646;8.568;2023-03-19T12:06:29;3.40;;;2.25;;
11827;SDS011;5971;49.646;8.568;2023-03-19T12:12:38;3.03;;;2.40;;
11827;SDS011;5971;49.646;8.568;2023-03-19T12:19:14;3.05;;;2.30;;
11827;SDS011;5971;49.646;8.568;2023-03-19T12:28:40;3.33;;;1.73;;
11827;SDS011;5971;49.646;8.568;2023-03-19T12:31:53;3.25;;;1.85;;
11827;SDS011;5971;49.646;8.568;2023-03-19T12:34:57;3.35;;;1.80;;
11827;SDS011;5971;49.646;8.568;2023-03-19T12:41:24;4.75;;;2.97;;
11827;SDS011;5971;49.646;8.568;2023-03-19T12:44:35;3.30;;;2.25;;
11827;SDS011;5971;49.646;8.568;2023-03-19T12:47:37;4.85;;;1.80;;
11827;SDS011;5971;49.646;8.568;2023-03-19T12:50:41;2.97;;;1.77;;
11827;SDS011;5971;49.646;8.568;2023-03-19T12:53:46;4.25;;;2.30;;
11827;SDS011;5971;49.646;8.568;2023-03-19T13:03:49;2.08;;;1.30;;
11827;SDS011;5971;49.646;8.568;2023-03-19T13:10:10;3.60;;;1.75;;
11827;SDS011;5971;49.646;8.568;2023-03-19T13:19:32;2.55;;;1.50;;
11827;SDS011;5971;49.646;8.568;2023-03-19T13:22:36;2.58;;;1.65;;
11827;SDS011;5971;49.646;8.568;2023-03-19T13:25:39;2.03;;;1.35;;
11827;SDS011;5971;49.646;8.568;2023-03-19T13:29:00;4.28;;;1.48;;
11827;SDS011;5971;49.646;8.568;2023-03-19T13:44:39;2.60;;;1.42;;
11827;SDS011;5971;49.646;8.568;2023-03-19T13:47:41;5.10;;;1.60;;
11827;SDS011;5971;49.646;8.568;2023-03-19T13:50:50;3.25;;;2.28;;
11827;SDS011;5971;49.646;8.568;2023-03-19T13:54:03;2.60;;;1.40;;
11827;SDS011;5971;49.646;8.568;2023-03-19T14:03:35;2.63;;;1.50;;
11827;SDS011;5971;49.646;8.568;2023-03-19T14:06:37;2.28;;;1.40;;
11827;SDS011;5971;49.646;8.568;2023-03-19T14:09:40;3.67;;;1.63;;
11827;SDS011;5971;49.646;8.568;2023-03-19T14:12:43;2.60;;;1.90;;
11827;SDS011;5971;49.646;8.568;2023-03-19T14:15:48;4.40;;;1.60;;
11827;SDS011;5971;49.646;8.568;2023-03-19T14:18:54;3.10;;;1.58;;
11827;SDS011;5971;49.646;8.568;2023-03-19T14:25:17;3.05;;;1.60;;
11827;SDS011;5971;49.646;8.568;2023-03-19T14:28:20;3.42;;;2.03;;
11827;SDS011;5971;49.646;8.568;2023-03-19T14:34:31;5.22;;;2.13;;
11827;SDS011;5971;49.646;8.568;2023-03-19T14:37:37;5.18;;;1.90;;
11827;SDS011;5971;49.646;8.568;2023-03-19T14:40:42;3.60;;;1.90;;
11827;SDS011;5971;49.646;8.568;2023-03-19T14:47:25;5.32;;;2.55;;
11827;SDS011;5971;49.646;8.568;2023-03-19T14:50:34;4.03;;;2.67;;
11827;SDS011;5971;49.646;8.568;2023-03-19T14:56:46;3.30;;;1.55;;
11827;SDS011;5971;49.646;8.568;2023-03-19T14:59:48;2.90;;;1.42;;
11827;SDS011;5971;49.646;8.568;2023-03-19T15:02:50;3.85;;;2.60;;
11827;SDS011;5971;49.646;8.568;2023-03-19T15:05:55;3.42;;;1.70;;
11827;SDS011;5971;49.646;8.568;2023-03-19T15:08:57;2.70;;;1.90;;
11827;SDS011;5971;49.646;8.568;2023-03-19T15:18:22;2.80;;;1.40;;
11827;SDS011;5971;49.646;8.568;2023-03-19T15:21:24;2.25;;;1.38;;
11827;SDS011;5971;49.646;8.568;2023-03-19T15:24:26;3.78;;;1.85;;
11827;SDS011;5971;49.646;8.568;2023-03-19T15:27:28;2.05;;;1.67;;
11827;SDS011;5971;49.646;8.568;2023-03-19T15:30:30;3.72;;;2.10;;
11827;SDS011;5971;49.646;8.568;2023-03-19T15:33:34;3.03;;;2.10;;
11827;SDS011;5971;49.646;8.568;2023-03-19T15:36:41;2.92;;;1.67;;
11827;SDS011;5971;49.646;8.568;2023-03-19T15:39:44;2.92;;;1.90;;
11827;SDS011;5971;49.646;8.568;2023-03-19T15:42:47;2.80;;;2.42;;
11827;SDS011;5971;49.646;8.568;2023-03-19T15:49:30;2.97;;;2.17;;
11827;SDS011;5971;49.646;8.568;2023-03-19T15:52:32;1.90;;;1.50;;
11827;SDS011;5971;49.646;8.568;2023-03-19T15:55:36;2.42;;;1.75;;
11827;SDS011;5971;49.646;8.568;2023-03-19T15:58:38;2.45;;;1.58;;
11827;SDS011;5971;49.646;8.568;2023-03-19T16:01:41;2.85;;;2.00;;
11827;SDS011;5971;49.646;8.568;2023-03-19T16:04:45;3.53;;;1.85;;
11827;SDS011;5971;49.646;8.568;2023-03-19T16:08:09;2.42;;;1.25;;
11827;SDS011;5971;49.646;8.568;2023-03-19T16:11:12;2.20;;;1.80;;
11827;SDS011;5971;49.646;8.568;2023-03-19T16:17:17;2.72;;;1.70;;
11827;SDS011;5971;49.646;8.568;2023-03-19T16:20:20;2.75;;;1.73;;
11827;SDS011;5971;49.646;8.568;2023-03-19T16:23:21;5.65;;;2.47;;
11827;SDS011;5971;49.646;8.568;2023-03-19T16:29:33;3.17;;;1.90;;
11827;SDS011;5971;49.646;8.568;2023-03-19T16:32:36;3.55;;;1.40;;
11827;SDS011;5971;49.646;8.568;2023-03-19T16:35:38;2.60;;;1.60;;
11827;SDS011;5971;49.646;8.568;2023-03-19T16:42:14;2.33;;;1.33;;
11827;SDS011;5971;49.646;8.568;2023-03-19T16:45:17;4.22;;;2.22;;
11827;SDS011;5971;49.646;8.568;2023-03-19T16:48:19;3.92;;;1.92;;
11827;SDS011;5971;49.646;8.568;2023-03-19T16:51:20;5.45;;;2.33;;
11827;SDS011;5971;49.646;8.568;2023-03-19T16:54:22;3.67;;;1.63;;
11827;SDS011;5971;49.646;8.568;2023-03-19T16:57:23;3.05;;;1.90;;
11827;SDS011;5971;49.646;8.568;2023-03-19T17:00:25;5.63;;;1.92;;
11827;SDS011;5971;49.646;8.568;2023-03-19T17:03:27;3.95;;;1.88;;
11827;SDS011;5971;49.646;8.568;2023-03-19T17:06:30;3.30;;;1.77;;
11827;SDS011;5971;49.646;8.568;2023-03-19T17:09:34;3.15;;;1.75;;
11827;SDS011;5971;49.646;8.568;2023-03-19T17:12:36;3.03;;;1.42;;
11827;SDS011;5971;49.646;8.568;2023-03-19T17:15:37;3.60;;;1.52;;
11827;SDS011;5971;49.646;8.568;2023-03-19T17:18:40;5.05;;;1.80;;
11827;SDS011;5971;49.646;8.568;2023-03-19T17:21:43;4.47;;;2.00;;
11827;SDS011;5971;49.646;8.568;2023-03-19T17:24:44;3.05;;;1.95;;
11827;SDS011;5971;49.646;8.568;2023-03-19T17:27:45;4.00;;;1.73;;
11827;SDS011;5971;49.646;8.568;2023-03-19T17:30:47;3.78;;;1.63;;
11827;SDS011;5971;49.646;8.568;2023-03-19T17:33:49;4.60;;;2.20;;
11827;SDS011;5971;49.646;8.568;2023-03-19T17:37:01;4.70;;;2.10;;
11827;SDS011;5971;49.646;8.568;2023-03-19T17:40:08;4.55;;;2.13;;
11827;SDS011;5971;49.646;8.568;2023-03-19T17:43:12;4.45;;;2.30;;
11827;SDS011;5971;49.646;8.568;2023-03-19T17:46:17;6.00;;;3.20;;
11827;SDS011;5971;49.646;8.568;2023-03-19T17:49:23;7.15;;;2.65;;
11827;SDS011;5971;49.646;8.568;2023-03-19T17:52:25;6.40;;;3.85;;
11827;SDS011;5971;49.646;8.568;2023-03-19T17:55:27;7.13;;;2.83;;
11827;SDS011;5971;49.646;8.568;2023-03-19T17:58:29;5.13;;;2.10;;
11827;SDS011;5971;49.646;8.568;2023-03-19T18:01:30;5.88;;;2.35;;
11827;SDS011;5971;49.646;8.568;2023-03-19T18:04:32;3.22;;;1.90;;
11827;SDS011;5971;49.646;8.568;2023-03-19T18:07:34;2.70;;;1.55;;
11827;SDS011;5971;49.646;8.568;2023-03-19T18:10:35;3.42;;;1.27;;
11827;SDS011;5971;49.646;8.568;2023-03-19T18:13:37;3.25;;;1.20;;
11827;SDS011;5971;49.646;8.568;2023-03-19T18:16:38;2.83;;;1.00;;
11827;SDS011;5971;49.646;8.568;2023-03-19T18:19:40;1.98;;;1.20;;
11827;SDS011;5971;49.646;8.568;2023-03-19T18:22:42;2.97;;;2.70;;
11827;SDS011;5971;49.646;8.568;2023-03-19T18:25:44;4.95;;;1.73;;
11827;SDS011;5971;49.646;8.568;2023-03-19T18:28:45;3.22;;;1.35;;
11827;SDS011;5971;49.646;8.568;2023-03-19T18:31:47;3.67;;;2.03;;
11827;SDS011;5971;49.646;8.568;2023-03-19T18:34:50;2.40;;;1.63;;
11827;SDS011;5971;49.646;8.568;2023-03-19T18:37:51;2.65;;;1.70;;
11827;SDS011;5971;49.646;8.568;2023-03-19T18:40:53;3.03;;;1.70;;
11827;SDS011;5971;49.646;8.568;2023-03-19T18:43:54;3.30;;;2.00;;
11827;SDS011;5971;49.646;8.568;2023-03-19T18:46:56;4.03;;;2.35;;
11827;SDS011;5971;49.646;8.568;2023-03-19T18:49:58;4.60;;;2.20;;
11827;SDS011;5971;49.646;8.568;2023-03-19T18:52:59;5.22;;;2.22;;
11827;SDS011;5971;49.646;8.568;2023-03-19T18:56:00;3.00;;;1.95;;
11827;SDS011;5971;49.646;8.568;2023-03-19T18:59:10;3.60;;;2.17;;
11827;SDS011;5971;49.646;8.568;2023-03-19T19:05:19;4.60;;;1.92;;
11827;SDS011;5971;49.646;8.568;2023-03-19T19:08:23;3.50;;;1.63;;
11827;SDS011;5971;49.646;8.568;2023-03-19T19:11:26;2.60;;;1.65;;
11827;SDS011;5971;49.646;8.568;2023-03-19T19:14:28;2.88;;;1.50;;
11827;SDS011;5971;49.646;8.568;2023-03-19T19:17:29;4.00;;;2.13;;
11827;SDS011;5971;49.646;8.568;2023-03-19T19:20:32;2.83;;;1.63;;
11827;SDS011;5971;49.646;8.568;2023-03-19T19:23:33;2.88;;;1.80;;
11827;SDS011;5971;49.646;8.568;2023-03-19T19:26:35;4.85;;;2.10;;
11827;SDS011;5971;49.646;8.568;2023-03-19T19:32:40;7.35;;;2.38;;
11827;SDS011;5971;49.646;8.568;2023-03-19T19:35:42;5.78;;;2.75;;
11827;SDS011;5971;49.646;8.568;2023-03-19T19:38:43;3.92;;;2.30;;
11827;SDS011;5971;49.646;8.568;2023-03-19T19:41:45;5.80;;;2.20;;
11827;SDS011;5971;49.646;8.568;2023-03-19T19:44:50;4.60;;;3.22;;
11827;SDS011;5971;49.646;8.568;2023-03-19T19:47:52;4.65;;;2.60;;
11827;SDS011;5971;49.646;8.568;2023-03-19T19:50:54;5.20;;;2.70;;
11827;SDS011;5971;49.646;8.568;2023-03-19T19:53:56;5.43;;;2.58;;
11827;SDS011;5971;49.646;8.568;2023-03-19T19:56:57;6.13;;;3.05;;
11827;SDS011;5971;49.646;8.568;2023-03-19T19:59:58;4.40;;;2.47;;
11827;SDS011;5971;49.646;8.568;2023-03-19T20:03:00;4.32;;;2.40;;
11827;SDS011;5971;49.646;8.568;2023-03-19T20:06:01;4.10;;;2.67;;
11827;SDS011;5971;49.646;8.568;2023-03-19T20:09:03;4.03;;;2.65;;
11827;SDS011;5971;49.646;8.568;2023-03-19T20:12:11;7.85;;;3.40;;
11827;SDS011;5971;49.646;8.568;2023-03-19T20:15:20;7.18;;;3.47;;
11827;SDS011;5971;49.646;8.568;2023-03-19T20:18:22;4.80;;;3.33;;
11827;SDS011;5971;49.646;8.568;2023-03-19T20:21:24;6.20;;;3.90;;
11827;SDS011;5971;49.646;8.568;2023-03-19T20:24:26;5.38;;;2.70;;
11827;SDS011;5971;49.646;8.568;2023-03-19T20:27:28;4.20;;;2.70;;
11827;SDS011;5971;49.646;8.568;2023-03-19T20:30:35;4.70;;;3.00;;
11827;SDS011;5971;49.646;8.568;2023-03-19T20:33:41;6.00;;;2.70;;
11827;SDS011;5971;49.646;8.568;2023-03-19T20:36:42;5.32;;;2.72;;
11827;SDS011;5971;49.646;8.568;2023-03-19T20:39:44;4.88;;;2.53;;
11827;SDS011;5971;49.646;8.568;2023-03-19T20:42:46;7.40;;;2.70;;